sensor_id;sensor_type;location;lat;lon;timestamp;P1;durP1;ratioP1;P2;durP2;ratioP2
47431;SDS011;33183;52.290;6.144;2022-12-11T00:01:15;7.63;;;5.68;;
47431;SDS011;33183;52.290;6.144;2022-12-11T00:03:42;8.20;;;5.38;;
47431;SDS011;33183;52.290;6.144;2022-12-11T00:06:08;8.38;;;5.85;;
47431;SDS011;33183;52.290;6.144;2022-12-11T00:08:35;8.70;;;5.47;;
47431;SDS011;33183;52.290;6.144;2022-12-11T00:11:01;7.97;;;4.97;;
47431;SDS011;33183;52.290;6.144;2022-12-11T00:13:27;6.68;;;4.72;;
47431;SDS011;33183;52.290;6.144;2022-12-11T00:15:52;7.03;;;5.65;;
47431;SDS011;33183;52.290;6.144;2022-12-11T00:18:17;8.15;;;5.40;;
47431;SDS011;33183;52.290;6.144;2022-12-11T00:20:43;8.25;;;5.40;;
47431;SDS011;33183;52.290;6.144;2022-12-11T00:23:08;7.88;;;5.20;;
47431;SDS011;33183;52.290;6.144;2022-12-11T00:25:35;7.97;;;5.50;;
47431;SDS011;33183;52.290;6.144;2022-12-11T00:28:05;8.18;;;5.13;;
47431;SDS011;33183;52.290;6.144;2022-12-11T00:30:30;9.15;;;5.75;;
47431;SDS011;33183;52.290;6.144;2022-12-11T00:32:55;7.55;;;5.50;;
47431;SDS011;33183;52.290;6.144;2022-12-11T00:35:21;6.95;;;4.82;;
47431;SDS011;33183;52.290;6.144;2022-12-11T00:37:46;8.20;;;4.78;;
47431;SDS011;33183;52.290;6.144;2022-12-11T00:40:11;9.63;;;5.63;;
47431;SDS011;33183;52.290;6.144;2022-12-11T00:42:37;7.00;;;4.70;;
47431;SDS011;33183;52.290;6.144;2022-12-11T00:45:02;7.03;;;5.03;;
47431;SDS011;33183;52.290;6.144;2022-12-11T00:47:28;9.50;;;5.72;;
47431;SDS011;33183;52.290;6.144;2022-12-11T00:49:53;5.82;;;4.53;;
47431;SDS011;33183;52.290;6.144;2022-12-11T00:52:18;5.68;;;4.35;;
47431;SDS011;33183;52.290;6.144;2022-12-11T00:54:44;6.85;;;5.05;;
47431;SDS011;33183;52.290;6.144;2022-12-11T00:57:09;6.93;;;4.97;;
47431;SDS011;33183;52.290;6.144;2022-12-11T00:59:34;8.45;;;5.50;;
47431;SDS011;33183;52.290;6.144;2022-12-11T01:02:00;6.97;;;5.00;;
47431;SDS011;33183;52.290;6.144;2022-12-11T01:04:25;7.88;;;5.63;;
47431;SDS011;33183;52.290;6.144;2022-12-11T01:06:50;6.53;;;4.57;;
47431;SDS011;33183;52.290;6.144;2022-12-11T01:09:16;7.57;;;4.78;;
47431;SDS011;33183;52.290;6.144;2022-12-11T01:11:59;7.50;;;4.75;;
47431;SDS011;33183;52.290;6.144;2022-12-11T01:14:25;7.65;;;4.97;;
47431;SDS011;33183;52.290;6.144;2022-12-11T01:16:50;6.82;;;4.40;;
47431;SDS011;33183;52.290;6.144;2022-12-11T01:19:15;7.50;;;5.50;;
47431;SDS011;33183;52.290;6.144;2022-12-11T01:21:40;6.97;;;4.63;;
47431;SDS011;33183;52.290;6.144;2022-12-11T01:24:06;5.65;;;4.38;;
47431;SDS011;33183;52.290;6.144;2022-12-11T01:26:31;5.70;;;4.53;;
47431;SDS011;33183;52.290;6.144;2022-12-11T01:28:56;6.18;;;4.57;;
47431;SDS011;33183;52.290;6.144;2022-12-11T01:31:22;7.10;;;4.70;;
47431;SDS011;33183;52.290;6.144;2022-12-11T01:33:47;7.50;;;5.57;;
47431;SDS011;33183;52.290;6.144;2022-12-11T01:36:14;7.07;;;4.05;;
47431;SDS011;33183;52.290;6.144;2022-12-11T01:38:41;7.00;;;4.40;;
47431;SDS011;33183;52.290;6.144;2022-12-11T01:41:06;6.97;;;5.18;;
47431;SDS011;33183;52.290;6.144;2022-12-11T01:43:32;7.15;;;5.00;;
47431;SDS011;33183;52.290;6.144;2022-12-11T01:45:57;7.93;;;5.28;;
47431;SDS011;33183;52.290;6.144;2022-12-11T01:48:23;6.40;;;4.70;;
47431;SDS011;33183;52.290;6.144;2022-12-11T01:50:53;6.28;;;4.75;;
47431;SDS011;33183;52.290;6.144;2022-12-11T01:53:24;6.45;;;4.88;;
47431;SDS011;33183;52.290;6.144;2022-12-11T01:55:53;6.28;;;4.70;;
47431;SDS011;33183;52.290;6.144;2022-12-11T01:58:20;7.38;;;4.45;;
47431;SDS011;33183;52.290;6.144;2022-12-11T02:00:47;7.05;;;4.78;;
47431;SDS011;33183;52.290;6.144;2022-12-11T02:03:12;7.25;;;4.95;;
47431;SDS011;33183;52.290;6.144;2022-12-11T02:05:38;5.95;;;4.63;;
47431;SDS011;33183;52.290;6.144;2022-12-11T02:08:03;6.32;;;4.60;;
47431;SDS011;33183;52.290;6.144;2022-12-11T02:10:42;7.68;;;5.22;;
47431;SDS011;33183;52.290;6.144;2022-12-11T02:13:25;6.53;;;4.65;;
47431;SDS011;33183;52.290;6.144;2022-12-11T02:15:59;7.05;;;4.82;;
47431;SDS011;33183;52.290;6.144;2022-12-11T02:23:38;7.38;;;4.80;;
47431;SDS011;33183;52.290;6.144;2022-12-11T02:26:17;7.25;;;5.05;;
47431;SDS011;33183;52.290;6.144;2022-12-11T02:29:02;7.43;;;4.82;;
47431;SDS011;33183;52.290;6.144;2022-12-11T02:31:34;6.80;;;4.95;;
47431;SDS011;33183;52.290;6.144;2022-12-11T02:36:39;6.72;;;4.85;;
47431;SDS011;33183;52.290;6.144;2022-12-11T02:39:06;6.00;;;4.30;;
47431;SDS011;33183;52.290;6.144;2022-12-11T02:41:33;6.85;;;4.47;;
47431;SDS011;33183;52.290;6.144;2022-12-11T02:43:59;7.40;;;5.03;;
47431;SDS011;33183;52.290;6.144;2022-12-11T02:46:26;7.10;;;4.90;;
47431;SDS011;33183;52.290;6.144;2022-12-11T02:48:53;5.90;;;4.47;;
47431;SDS011;33183;52.290;6.144;2022-12-11T02:51:21;5.80;;;4.40;;
47431;SDS011;33183;52.290;6.144;2022-12-11T02:53:49;6.55;;;4.35;;
47431;SDS011;33183;52.290;6.144;2022-12-11T02:56:18;6.18;;;4.40;;
47431;SDS011;33183;52.290;6.144;2022-12-11T02:58:46;6.38;;;4.50;;
47431;SDS011;33183;52.290;6.144;2022-12-11T03:01:13;6.53;;;5.07;;
47431;SDS011;33183;52.290;6.144;2022-12-11T03:03:38;6.45;;;4.82;;
47431;SDS011;33183;52.290;6.144;2022-12-11T03:06:03;5.55;;;4.10;;
47431;SDS011;33183;52.290;6.144;2022-12-11T03:08:29;5.65;;;4.45;;
47431;SDS011;33183;52.290;6.144;2022-12-11T03:10:55;6.80;;;4.45;;
47431;SDS011;33183;52.290;6.144;2022-12-11T03:13:20;5.25;;;4.43;;
47431;SDS011;33183;52.290;6.144;2022-12-11T03:19:09;7.60;;;4.95;;
47431;SDS011;33183;52.290;6.144;2022-12-11T03:21:37;6.10;;;4.65;;
47431;SDS011;33183;52.290;6.144;2022-12-11T03:24:14;5.43;;;4.10;;
47431;SDS011;33183;52.290;6.144;2022-12-11T03:26:44;5.75;;;4.40;;
47431;SDS011;33183;52.290;6.144;2022-12-11T03:29:18;5.80;;;4.22;;
47431;SDS011;33183;52.290;6.144;2022-12-11T03:31:49;7.90;;;5.30;;
47431;SDS011;33183;52.290;6.144;2022-12-11T03:34:20;6.53;;;4.22;;
47431;SDS011;33183;52.290;6.144;2022-12-11T03:36:49;7.85;;;5.20;;
47431;SDS011;33183;52.290;6.144;2022-12-11T03:39:18;6.68;;;4.35;;
47431;SDS011;33183;52.290;6.144;2022-12-11T03:41:46;7.40;;;4.78;;
47431;SDS011;33183;52.290;6.144;2022-12-11T03:44:12;7.50;;;5.10;;
47431;SDS011;33183;52.290;6.144;2022-12-11T03:46:38;7.57;;;4.72;;
47431;SDS011;33183;52.290;6.144;2022-12-11T03:49:09;6.50;;;4.25;;
47431;SDS011;33183;52.290;6.144;2022-12-11T03:51:39;6.65;;;4.18;;
47431;SDS011;33183;52.290;6.144;2022-12-11T03:54:06;6.68;;;4.85;;
47431;SDS011;33183;52.290;6.144;2022-12-11T03:56:31;7.20;;;4.70;;
47431;SDS011;33183;52.290;6.144;2022-12-11T03:58:58;6.60;;;4.30;;
47431;SDS011;33183;52.290;6.144;2022-12-11T04:01:24;6.68;;;4.80;;
47431;SDS011;33183;52.290;6.144;2022-12-11T04:03:49;7.68;;;4.85;;
47431;SDS011;33183;52.290;6.144;2022-12-11T04:06:14;7.13;;;4.93;;
47431;SDS011;33183;52.290;6.144;2022-12-11T04:08:40;6.00;;;4.28;;
47431;SDS011;33183;52.290;6.144;2022-12-11T04:11:05;7.63;;;4.50;;
47431;SDS011;33183;52.290;6.144;2022-12-11T04:13:49;7.68;;;5.45;;
47431;SDS011;33183;52.290;6.144;2022-12-11T04:16:34;7.28;;;4.63;;
47431;SDS011;33183;52.290;6.144;2022-12-11T04:18:59;6.65;;;4.43;;
47431;SDS011;33183;52.290;6.144;2022-12-11T04:21:43;7.80;;;5.47;;
47431;SDS011;33183;52.290;6.144;2022-12-11T04:24:27;6.55;;;4.32;;
47431;SDS011;33183;52.290;6.144;2022-12-11T04:26:52;6.32;;;4.32;;
47431;SDS011;33183;52.290;6.144;2022-12-11T04:29:18;7.38;;;4.75;;
47431;SDS011;33183;52.290;6.144;2022-12-11T04:31:43;6.15;;;4.00;;
47431;SDS011;33183;52.290;6.144;2022-12-11T04:34:09;6.57;;;4.50;;
47431;SDS011;33183;52.290;6.144;2022-12-11T04:36:35;7.07;;;5.63;;
47431;SDS011;33183;52.290;6.144;2022-12-11T04:39:00;6.47;;;4.63;;
47431;SDS011;33183;52.290;6.144;2022-12-11T04:41:25;7.25;;;4.68;;
47431;SDS011;33183;52.290;6.144;2022-12-11T04:43:51;7.05;;;4.32;;
47431;SDS011;33183;52.290;6.144;2022-12-11T04:46:20;6.75;;;4.55;;
47431;SDS011;33183;52.290;6.144;2022-12-11T04:48:47;6.75;;;4.80;;
47431;SDS011;33183;52.290;6.144;2022-12-11T04:51:13;6.40;;;4.22;;
47431;SDS011;33183;52.290;6.144;2022-12-11T04:53:38;6.88;;;4.57;;
47431;SDS011;33183;52.290;6.144;2022-12-11T04:56:04;7.30;;;4.85;;
47431;SDS011;33183;52.290;6.144;2022-12-11T04:58:31;7.35;;;5.22;;
47431;SDS011;33183;52.290;6.144;2022-12-11T05:00:56;6.00;;;4.35;;
47431;SDS011;33183;52.290;6.144;2022-12-11T05:03:22;6.47;;;4.45;;
47431;SDS011;33183;52.290;6.144;2022-12-11T05:05:51;7.50;;;4.50;;
47431;SDS011;33183;52.290;6.144;2022-12-11T05:08:17;7.18;;;5.20;;
47431;SDS011;33183;52.290;6.144;2022-12-11T05:10:43;7.32;;;4.85;;
47431;SDS011;33183;52.290;6.144;2022-12-11T05:13:09;7.50;;;4.70;;
47431;SDS011;33183;52.290;6.144;2022-12-11T05:15:37;6.57;;;4.60;;
47431;SDS011;33183;52.290;6.144;2022-12-11T05:18:03;7.28;;;4.72;;
47431;SDS011;33183;52.290;6.144;2022-12-11T05:20:28;6.68;;;4.72;;
47431;SDS011;33183;52.290;6.144;2022-12-11T05:22:53;7.03;;;4.93;;
47431;SDS011;33183;52.290;6.144;2022-12-11T05:25:19;6.70;;;4.82;;
47431;SDS011;33183;52.290;6.144;2022-12-11T05:27:44;6.72;;;4.40;;
47431;SDS011;33183;52.290;6.144;2022-12-11T05:30:09;6.97;;;4.63;;
47431;SDS011;33183;52.290;6.144;2022-12-11T05:32:35;7.00;;;4.72;;
47431;SDS011;33183;52.290;6.144;2022-12-11T05:35:00;6.50;;;4.53;;
47431;SDS011;33183;52.290;6.144;2022-12-11T05:37:25;6.75;;;4.50;;
47431;SDS011;33183;52.290;6.144;2022-12-11T05:39:51;6.85;;;4.70;;
47431;SDS011;33183;52.290;6.144;2022-12-11T05:42:16;7.25;;;5.35;;
47431;SDS011;33183;52.290;6.144;2022-12-11T05:44:41;5.30;;;3.75;;
47431;SDS011;33183;52.290;6.144;2022-12-11T05:47:07;5.45;;;4.00;;
47431;SDS011;33183;52.290;6.144;2022-12-11T05:49:32;6.05;;;4.55;;
47431;SDS011;33183;52.290;6.144;2022-12-11T05:51:58;6.00;;;4.40;;
47431;SDS011;33183;52.290;6.144;2022-12-11T05:54:23;5.68;;;4.10;;
47431;SDS011;33183;52.290;6.144;2022-12-11T05:56:49;5.25;;;3.80;;
47431;SDS011;33183;52.290;6.144;2022-12-11T05:59:15;6.32;;;4.65;;
47431;SDS011;33183;52.290;6.144;2022-12-11T06:01:41;5.80;;;4.10;;
47431;SDS011;33183;52.290;6.144;2022-12-11T06:04:07;6.43;;;4.20;;
47431;SDS011;33183;52.290;6.144;2022-12-11T06:06:34;6.60;;;4.47;;
47431;SDS011;33183;52.290;6.144;2022-12-11T06:09:00;8.90;;;5.07;;
47431;SDS011;33183;52.290;6.144;2022-12-11T06:11:26;6.15;;;4.57;;
47431;SDS011;33183;52.290;6.144;2022-12-11T06:13:53;5.10;;;3.85;;
47431;SDS011;33183;52.290;6.144;2022-12-11T06:16:19;5.20;;;4.22;;
47431;SDS011;33183;52.290;6.144;2022-12-11T06:18:44;5.53;;;4.10;;
47431;SDS011;33183;52.290;6.144;2022-12-11T06:21:17;6.72;;;4.18;;
47431;SDS011;33183;52.290;6.144;2022-12-11T06:23:46;5.88;;;4.20;;
47431;SDS011;33183;52.290;6.144;2022-12-11T06:26:12;5.28;;;4.07;;
47431;SDS011;33183;52.290;6.144;2022-12-11T06:28:39;6.15;;;4.40;;
47431;SDS011;33183;52.290;6.144;2022-12-11T06:31:04;6.50;;;4.60;;
47431;SDS011;33183;52.290;6.144;2022-12-11T06:33:30;5.72;;;4.13;;
47431;SDS011;33183;52.290;6.144;2022-12-11T06:35:59;6.35;;;4.20;;
47431;SDS011;33183;52.290;6.144;2022-12-11T06:38:25;6.18;;;4.20;;
47431;SDS011;33183;52.290;6.144;2022-12-11T06:40:57;5.82;;;4.50;;
47431;SDS011;33183;52.290;6.144;2022-12-11T06:43:23;5.95;;;4.32;;
47431;SDS011;33183;52.290;6.144;2022-12-11T06:45:49;6.30;;;4.28;;
47431;SDS011;33183;52.290;6.144;2022-12-11T06:48:15;6.55;;;4.55;;
47431;SDS011;33183;52.290;6.144;2022-12-11T06:50:41;5.65;;;4.10;;
47431;SDS011;33183;52.290;6.144;2022-12-11T06:53:06;6.60;;;4.28;;
47431;SDS011;33183;52.290;6.144;2022-12-11T06:55:35;7.60;;;3.95;;
47431;SDS011;33183;52.290;6.144;2022-12-11T06:58:00;5.88;;;4.47;;
47431;SDS011;33183;52.290;6.144;2022-12-11T07:00:26;7.43;;;4.25;;
47431;SDS011;33183;52.290;6.144;2022-12-11T07:02:51;7.25;;;4.78;;
47431;SDS011;33183;52.290;6.144;2022-12-11T07:05:16;6.13;;;4.00;;
47431;SDS011;33183;52.290;6.144;2022-12-11T07:07:42;6.18;;;4.28;;
47431;SDS011;33183;52.290;6.144;2022-12-11T07:10:07;6.30;;;4.25;;
47431;SDS011;33183;52.290;6.144;2022-12-11T07:12:33;6.30;;;4.65;;
47431;SDS011;33183;52.290;6.144;2022-12-11T07:14:59;4.90;;;3.92;;
47431;SDS011;33183;52.290;6.144;2022-12-11T07:17:24;6.68;;;4.10;;
47431;SDS011;33183;52.290;6.144;2022-12-11T07:19:49;6.05;;;4.03;;
47431;SDS011;33183;52.290;6.144;2022-12-11T07:22:15;5.75;;;4.18;;
47431;SDS011;33183;52.290;6.144;2022-12-11T07:24:40;5.35;;;4.03;;
47431;SDS011;33183;52.290;6.144;2022-12-11T07:27:06;6.65;;;4.57;;
47431;SDS011;33183;52.290;6.144;2022-12-11T07:29:31;6.35;;;4.88;;
47431;SDS011;33183;52.290;6.144;2022-12-11T07:31:56;5.38;;;4.03;;
47431;SDS011;33183;52.290;6.144;2022-12-11T07:34:22;6.13;;;4.57;;
47431;SDS011;33183;52.290;6.144;2022-12-11T07:36:47;6.18;;;4.65;;
47431;SDS011;33183;52.290;6.144;2022-12-11T07:39:12;5.88;;;4.28;;
47431;SDS011;33183;52.290;6.144;2022-12-11T07:41:38;6.82;;;4.30;;
47431;SDS011;33183;52.290;6.144;2022-12-11T07:44:03;6.03;;;3.58;;
47431;SDS011;33183;52.290;6.144;2022-12-11T07:46:30;5.95;;;4.35;;
47431;SDS011;33183;52.290;6.144;2022-12-11T07:48:57;5.30;;;3.83;;
47431;SDS011;33183;52.290;6.144;2022-12-11T07:51:26;10.90;;;5.03;;
47431;SDS011;33183;52.290;6.144;2022-12-11T07:56:20;5.90;;;4.43;;
47431;SDS011;33183;52.290;6.144;2022-12-11T07:58:45;5.22;;;4.07;;
47431;SDS011;33183;52.290;6.144;2022-12-11T08:03:37;6.38;;;4.75;;
47431;SDS011;33183;52.290;6.144;2022-12-11T08:06:03;5.00;;;4.05;;
47431;SDS011;33183;52.290;6.144;2022-12-11T08:08:28;6.03;;;4.30;;
47431;SDS011;33183;52.290;6.144;2022-12-11T08:10:54;9.25;;;4.43;;
47431;SDS011;33183;52.290;6.144;2022-12-11T08:13:19;6.75;;;4.53;;
47431;SDS011;33183;52.290;6.144;2022-12-11T08:15:44;6.60;;;5.28;;
47431;SDS011;33183;52.290;6.144;2022-12-11T08:18:10;5.70;;;4.10;;
47431;SDS011;33183;52.290;6.144;2022-12-11T08:20:36;7.10;;;4.72;;
47431;SDS011;33183;52.290;6.144;2022-12-11T08:23:03;9.45;;;5.55;;
47431;SDS011;33183;52.290;6.144;2022-12-11T08:25:28;6.45;;;4.63;;
47431;SDS011;33183;52.290;6.144;2022-12-11T08:27:53;6.57;;;4.65;;
47431;SDS011;33183;52.290;6.144;2022-12-11T08:30:19;7.90;;;4.70;;
47431;SDS011;33183;52.290;6.144;2022-12-11T08:32:44;6.40;;;4.70;;
47431;SDS011;33183;52.290;6.144;2022-12-11T08:35:09;6.88;;;5.07;;
47431;SDS011;33183;52.290;6.144;2022-12-11T08:37:35;6.70;;;4.35;;
47431;SDS011;33183;52.290;6.144;2022-12-11T08:40:00;7.35;;;4.72;;
47431;SDS011;33183;52.290;6.144;2022-12-11T08:42:25;9.27;;;5.13;;
47431;SDS011;33183;52.290;6.144;2022-12-11T08:44:51;6.88;;;4.72;;
47431;SDS011;33183;52.290;6.144;2022-12-11T08:47:16;5.32;;;4.22;;
47431;SDS011;33183;52.290;6.144;2022-12-11T08:49:42;6.53;;;4.25;;
47431;SDS011;33183;52.290;6.144;2022-12-11T08:52:07;8.35;;;4.72;;
47431;SDS011;33183;52.290;6.144;2022-12-11T08:54:32;7.55;;;5.32;;
47431;SDS011;33183;52.290;6.144;2022-12-11T08:56:57;6.90;;;5.03;;
47431;SDS011;33183;52.290;6.144;2022-12-11T08:59:23;7.43;;;4.60;;
47431;SDS011;33183;52.290;6.144;2022-12-11T09:01:49;6.88;;;5.43;;
47431;SDS011;33183;52.290;6.144;2022-12-11T09:04:15;9.25;;;5.63;;
47431;SDS011;33183;52.290;6.144;2022-12-11T09:06:40;7.78;;;5.20;;
47431;SDS011;33183;52.290;6.144;2022-12-11T09:09:05;7.60;;;5.25;;
47431;SDS011;33183;52.290;6.144;2022-12-11T09:11:33;10.90;;;5.60;;
47431;SDS011;33183;52.290;6.144;2022-12-11T09:13:59;9.10;;;5.35;;
47431;SDS011;33183;52.290;6.144;2022-12-11T09:16:25;10.30;;;5.22;;
47431;SDS011;33183;52.290;6.144;2022-12-11T09:18:51;8.65;;;6.10;;
47431;SDS011;33183;52.290;6.144;2022-12-11T09:21:19;12.02;;;5.95;;
47431;SDS011;33183;52.290;6.144;2022-12-11T09:23:46;11.77;;;5.15;;
47431;SDS011;33183;52.290;6.144;2022-12-11T09:26:13;8.15;;;5.78;;
47431;SDS011;33183;52.290;6.144;2022-12-11T09:28:40;9.43;;;6.43;;
47431;SDS011;33183;52.290;6.144;2022-12-11T09:31:10;10.75;;;5.68;;
47431;SDS011;33183;52.290;6.144;2022-12-11T09:33:43;7.70;;;5.90;;
47431;SDS011;33183;52.290;6.144;2022-12-11T09:36:08;9.93;;;6.03;;
47431;SDS011;33183;52.290;6.144;2022-12-11T09:38:34;9.50;;;5.93;;
47431;SDS011;33183;52.290;6.144;2022-12-11T09:41:00;11.10;;;5.63;;
47431;SDS011;33183;52.290;6.144;2022-12-11T09:48:38;9.25;;;5.03;;
47431;SDS011;33183;52.290;6.144;2022-12-11T09:51:09;8.75;;;5.13;;
47431;SDS011;33183;52.290;6.144;2022-12-11T09:53:38;7.07;;;5.22;;
47431;SDS011;33183;52.290;6.144;2022-12-11T10:05:11;5.90;;;4.07;;
47431;SDS011;33183;52.290;6.144;2022-12-11T10:07:43;5.80;;;4.57;;
47431;SDS011;33183;52.290;6.144;2022-12-11T10:12:53;7.60;;;4.50;;
47431;SDS011;33183;52.290;6.144;2022-12-11T10:15:56;6.20;;;4.22;;
47431;SDS011;33183;52.290;6.144;2022-12-11T10:18:25;7.18;;;4.10;;
47431;SDS011;33183;52.290;6.144;2022-12-11T10:20:52;5.82;;;4.10;;
47431;SDS011;33183;52.290;6.144;2022-12-11T10:23:19;6.35;;;4.15;;
47431;SDS011;33183;52.290;6.144;2022-12-11T10:25:48;6.28;;;4.40;;
47431;SDS011;33183;52.290;6.144;2022-12-11T10:28:18;8.57;;;4.68;;
47431;SDS011;33183;52.290;6.144;2022-12-11T10:31:18;5.22;;;4.15;;
47431;SDS011;33183;52.290;6.144;2022-12-11T10:36:23;5.10;;;3.90;;
47431;SDS011;33183;52.290;6.144;2022-12-11T10:38:51;7.88;;;4.50;;
47431;SDS011;33183;52.290;6.144;2022-12-11T10:41:17;5.78;;;3.90;;
47431;SDS011;33183;52.290;6.144;2022-12-11T10:43:48;7.35;;;4.32;;
47431;SDS011;33183;52.290;6.144;2022-12-11T10:46:25;6.03;;;3.90;;
47431;SDS011;33183;52.290;6.144;2022-12-11T10:48:58;6.35;;;4.40;;
47431;SDS011;33183;52.290;6.144;2022-12-11T10:51:28;4.97;;;3.83;;
47431;SDS011;33183;52.290;6.144;2022-12-11T10:56:33;4.88;;;3.83;;
47431;SDS011;33183;52.290;6.144;2022-12-11T10:58:59;6.18;;;3.88;;
47431;SDS011;33183;52.290;6.144;2022-12-11T11:01:28;7.10;;;4.10;;
47431;SDS011;33183;52.290;6.144;2022-12-11T11:04:02;7.05;;;4.05;;
47431;SDS011;33183;52.290;6.144;2022-12-11T11:06:59;5.15;;;4.05;;
47431;SDS011;33183;52.290;6.144;2022-12-11T11:09:33;7.57;;;4.95;;
47431;SDS011;33183;52.290;6.144;2022-12-11T11:12:00;7.15;;;4.63;;
47431;SDS011;33183;52.290;6.144;2022-12-11T11:14:26;9.30;;;5.45;;
47431;SDS011;33183;52.290;6.144;2022-12-11T11:16:53;6.65;;;5.00;;
47431;SDS011;33183;52.290;6.144;2022-12-11T11:19:21;7.85;;;5.60;;
47431;SDS011;33183;52.290;6.144;2022-12-11T11:21:54;8.05;;;5.03;;
47431;SDS011;33183;52.290;6.144;2022-12-11T11:24:27;7.72;;;4.90;;
47431;SDS011;33183;52.290;6.144;2022-12-11T11:26:53;9.75;;;5.28;;
47431;SDS011;33183;52.290;6.144;2022-12-11T11:29:28;6.82;;;4.53;;
47431;SDS011;33183;52.290;6.144;2022-12-11T11:31:55;6.70;;;4.95;;
47431;SDS011;33183;52.290;6.144;2022-12-11T11:34:20;8.20;;;5.03;;
47431;SDS011;33183;52.290;6.144;2022-12-11T11:36:54;7.35;;;5.25;;
47431;SDS011;33183;52.290;6.144;2022-12-11T11:44:33;7.35;;;4.82;;
47431;SDS011;33183;52.290;6.144;2022-12-11T11:47:04;6.43;;;5.00;;
47431;SDS011;33183;52.290;6.144;2022-12-11T11:52:39;7.57;;;4.95;;
47431;SDS011;33183;52.290;6.144;2022-12-11T11:55:05;7.47;;;4.60;;
47431;SDS011;33183;52.290;6.144;2022-12-11T11:57:44;5.82;;;4.97;;
47431;SDS011;33183;52.290;6.144;2022-12-11T12:00:18;5.68;;;4.32;;
47431;SDS011;33183;52.290;6.144;2022-12-11T12:02:46;6.05;;;4.30;;
47431;SDS011;33183;52.290;6.144;2022-12-11T12:06:10;8.57;;;4.97;;
47431;SDS011;33183;52.290;6.144;2022-12-11T12:08:28;5.28;;;4.13;;
47431;SDS011;33183;52.290;6.144;2022-12-11T12:16:18;5.50;;;3.95;;
47431;SDS011;33183;52.290;6.144;2022-12-11T12:22:51;6.90;;;3.92;;
47431;SDS011;33183;52.290;6.144;2022-12-11T12:25:01;6.53;;;4.55;;
47431;SDS011;33183;52.290;6.144;2022-12-11T12:27:37;5.10;;;3.90;;
47431;SDS011;33183;52.290;6.144;2022-12-11T12:30:09;6.93;;;4.53;;
47431;SDS011;33183;52.290;6.144;2022-12-11T12:32:52;4.80;;;3.35;;
47431;SDS011;33183;52.290;6.144;2022-12-11T12:35:29;5.72;;;3.75;;
47431;SDS011;33183;52.290;6.144;2022-12-11T12:41:08;4.93;;;3.47;;
47431;SDS011;33183;52.290;6.144;2022-12-11T12:46:27;5.55;;;3.45;;
47431;SDS011;33183;52.290;6.144;2022-12-11T12:48:58;3.60;;;3.15;;
47431;SDS011;33183;52.290;6.144;2022-12-11T12:51:24;5.28;;;3.40;;
47431;SDS011;33183;52.290;6.144;2022-12-11T12:53:54;4.65;;;3.20;;
47431;SDS011;33183;52.290;6.144;2022-12-11T12:56:24;3.58;;;2.75;;
47431;SDS011;33183;52.290;6.144;2022-12-11T12:58:51;4.30;;;2.97;;
47431;SDS011;33183;52.290;6.144;2022-12-11T13:01:17;5.45;;;3.20;;
47431;SDS011;33183;52.290;6.144;2022-12-11T13:04:00;4.45;;;3.22;;
47431;SDS011;33183;52.290;6.144;2022-12-11T13:06:32;4.35;;;3.13;;
47431;SDS011;33183;52.290;6.144;2022-12-11T13:11:37;4.20;;;3.15;;
47431;SDS011;33183;52.290;6.144;2022-12-11T13:16:38;4.25;;;3.28;;
47431;SDS011;33183;52.290;6.144;2022-12-11T13:19:25;5.53;;;4.28;;
47431;SDS011;33183;52.290;6.144;2022-12-11T13:21:55;3.83;;;3.10;;
47431;SDS011;33183;52.290;6.144;2022-12-11T13:24:24;4.18;;;3.22;;
47431;SDS011;33183;52.290;6.144;2022-12-11T13:26:51;3.45;;;3.15;;
47431;SDS011;33183;52.290;6.144;2022-12-11T13:29:36;5.30;;;2.83;;
47431;SDS011;33183;52.290;6.144;2022-12-11T13:34:35;3.42;;;2.63;;
47431;SDS011;33183;52.290;6.144;2022-12-11T13:37:02;3.60;;;2.95;;
47431;SDS011;33183;52.290;6.144;2022-12-11T13:39:29;4.30;;;3.50;;
47431;SDS011;33183;52.290;6.144;2022-12-11T13:41:57;3.80;;;3.25;;
47431;SDS011;33183;52.290;6.144;2022-12-11T13:44:28;4.60;;;3.20;;
47431;SDS011;33183;52.290;6.144;2022-12-11T13:46:57;3.58;;;2.90;;
47431;SDS011;33183;52.290;6.144;2022-12-11T13:49:27;3.63;;;2.80;;
47431;SDS011;33183;52.290;6.144;2022-12-11T13:51:57;3.70;;;2.80;;
47431;SDS011;33183;52.290;6.144;2022-12-11T13:54:23;3.42;;;2.90;;
47431;SDS011;33183;52.290;6.144;2022-12-11T13:56:57;3.97;;;3.10;;
47431;SDS011;33183;52.290;6.144;2022-12-11T13:59:48;3.47;;;2.67;;
47431;SDS011;33183;52.290;6.144;2022-12-11T14:02:18;4.63;;;3.05;;
47431;SDS011;33183;52.290;6.144;2022-12-11T14:04:46;4.10;;;3.30;;
47431;SDS011;33183;52.290;6.144;2022-12-11T14:07:14;4.15;;;3.05;;
47431;SDS011;33183;52.290;6.144;2022-12-11T14:09:42;3.43;;;2.70;;
47431;SDS011;33183;52.290;6.144;2022-12-11T14:12:16;4.65;;;3.20;;
47431;SDS011;33183;52.290;6.144;2022-12-11T14:14:44;3.67;;;3.03;;
47431;SDS011;33183;52.290;6.144;2022-12-11T14:17:14;3.72;;;2.80;;
47431;SDS011;33183;52.290;6.144;2022-12-11T14:19:55;3.58;;;3.00;;
47431;SDS011;33183;52.290;6.144;2022-12-11T14:22:24;3.30;;;2.92;;
47431;SDS011;33183;52.290;6.144;2022-12-11T14:24:52;4.30;;;3.30;;
47431;SDS011;33183;52.290;6.144;2022-12-11T14:27:19;3.67;;;3.17;;
47431;SDS011;33183;52.290;6.144;2022-12-11T14:29:45;5.30;;;3.25;;
47431;SDS011;33183;52.290;6.144;2022-12-11T14:32:14;4.28;;;3.20;;
47431;SDS011;33183;52.290;6.144;2022-12-11T14:37:26;3.85;;;2.83;;
47431;SDS011;33183;52.290;6.144;2022-12-11T14:39:59;3.55;;;3.10;;
47431;SDS011;33183;52.290;6.144;2022-12-11T14:42:29;3.47;;;2.92;;
47431;SDS011;33183;52.290;6.144;2022-12-11T14:47:22;3.13;;;2.60;;
47431;SDS011;33183;52.290;6.144;2022-12-11T14:52:21;3.83;;;3.13;;
47431;SDS011;33183;52.290;6.144;2022-12-11T14:54:49;3.67;;;2.75;;
47431;SDS011;33183;52.290;6.144;2022-12-11T14:57:18;3.25;;;2.65;;
47431;SDS011;33183;52.290;6.144;2022-12-11T14:59:47;4.07;;;2.95;;
47431;SDS011;33183;52.290;6.144;2022-12-11T15:02:20;3.45;;;3.05;;
47431;SDS011;33183;52.290;6.144;2022-12-11T15:04:55;3.38;;;2.80;;
47431;SDS011;33183;52.290;6.144;2022-12-11T15:07:31;3.58;;;3.10;;
47431;SDS011;33183;52.290;6.144;2022-12-11T15:09:57;4.43;;;3.30;;
47431;SDS011;33183;52.290;6.144;2022-12-11T15:12:22;3.38;;;2.70;;
47431;SDS011;33183;52.290;6.144;2022-12-11T15:14:53;3.22;;;2.70;;
47431;SDS011;33183;52.290;6.144;2022-12-11T15:17:21;4.22;;;2.83;;
47431;SDS011;33183;52.290;6.144;2022-12-11T15:20:02;3.70;;;3.08;;
47431;SDS011;33183;52.290;6.144;2022-12-11T15:22:32;3.35;;;2.92;;
47431;SDS011;33183;52.290;6.144;2022-12-11T15:24:58;3.75;;;2.67;;
47431;SDS011;33183;52.290;6.144;2022-12-11T15:32:42;3.03;;;2.72;;
47431;SDS011;33183;52.290;6.144;2022-12-11T15:35:21;3.78;;;3.08;;
47431;SDS011;33183;52.290;6.144;2022-12-11T15:37:51;3.83;;;3.08;;
47431;SDS011;33183;52.290;6.144;2022-12-11T15:40:18;3.92;;;2.95;;
47431;SDS011;33183;52.290;6.144;2022-12-11T15:42:43;4.00;;;3.22;;
47431;SDS011;33183;52.290;6.144;2022-12-11T15:45:18;5.63;;;3.42;;
47431;SDS011;33183;52.290;6.144;2022-12-11T15:47:48;4.50;;;3.10;;
47431;SDS011;33183;52.290;6.144;2022-12-11T15:52:41;4.50;;;3.22;;
47431;SDS011;33183;52.290;6.144;2022-12-11T15:55:07;3.05;;;2.75;;
47431;SDS011;33183;52.290;6.144;2022-12-11T15:57:32;3.95;;;3.45;;
47431;SDS011;33183;52.290;6.144;2022-12-11T15:59:59;4.32;;;2.90;;
47431;SDS011;33183;52.290;6.144;2022-12-11T16:02:24;4.22;;;2.97;;
47431;SDS011;33183;52.290;6.144;2022-12-11T16:04:51;4.30;;;3.22;;
47431;SDS011;33183;52.290;6.144;2022-12-11T16:07:18;4.10;;;3.08;;
47431;SDS011;33183;52.290;6.144;2022-12-11T16:09:45;3.38;;;2.67;;
47431;SDS011;33183;52.290;6.144;2022-12-11T16:12:11;5.22;;;2.90;;
47431;SDS011;33183;52.290;6.144;2022-12-11T16:14:37;4.57;;;3.10;;
47431;SDS011;33183;52.290;6.144;2022-12-11T16:17:06;5.93;;;3.10;;
47431;SDS011;33183;52.290;6.144;2022-12-11T16:19:32;3.60;;;2.90;;